createdAt,value
2018-12-08T00:00:03.229Z,1033.88
2018-12-08T00:01:48.371Z,1033.87
2018-12-08T00:02:48.999Z,1033.86
2018-12-08T00:03:49.723Z,1033.84
2018-12-08T00:05:34.811Z,1033.83
2018-12-08T00:06:35.438Z,1033.82
2018-12-08T00:07:36.013Z,1033.88
2018-12-08T00:09:21.103Z,1033.86
2018-12-08T00:10:21.678Z,1033.80
2018-12-08T00:11:22.254Z,1033.85
2018-12-08T00:13:07.445Z,1033.81
2018-12-08T00:14:08.023Z,1033.88
2018-12-08T00:15:08.595Z,1033.76
2018-12-08T00:16:53.684Z,1033.84
2018-12-08T00:17:54.263Z,1033.83
2018-12-08T00:18:54.880Z,1033.84
2018-12-08T00:20:39.971Z,1033.85
2018-12-08T00:21:40.598Z,1033.82
2018-12-08T00:22:41.223Z,1033.75
2018-12-08T00:24:26.356Z,1033.77
2018-12-08T00:25:26.982Z,1033.73
2018-12-08T00:26:27.569Z,1033.70
2018-12-08T00:28:12.595Z,1033.79
2018-12-08T00:29:13.170Z,1033.76
2018-12-08T00:30:18.948Z,1033.74
2018-12-08T00:32:04.185Z,1033.72
2018-12-08T00:33:05.012Z,1033.68
2018-12-08T00:34:05.588Z,1033.68
2018-12-08T00:35:50.679Z,1033.76
2018-12-08T00:36:51.256Z,1033.65
2018-12-08T00:37:51.881Z,1033.67
2018-12-08T00:39:37.020Z,1033.72
2018-12-08T00:40:37.597Z,1033.69
2018-12-08T00:41:38.173Z,1033.64
2018-12-08T00:43:23.264Z,1033.60
2018-12-08T00:44:23.841Z,1033.57
2018-12-08T00:45:24.417Z,1033.57
2018-12-08T00:47:09.457Z,1033.62
2018-12-08T00:48:10.085Z,1033.61
2018-12-08T00:49:10.657Z,1033.65
2018-12-08T00:50:55.748Z,1033.58
2018-12-08T00:51:56.375Z,1033.61
2018-12-08T00:52:56.950Z,1033.59
2018-12-08T00:54:42.039Z,1033.56
2018-12-08T00:55:42.615Z,1033.55
2018-12-08T00:56:43.242Z,1033.54
2018-12-08T00:58:28.330Z,1033.59
2018-12-08T00:59:28.906Z,1033.59
2018-12-08T01:00:29.482Z,1033.58
2018-12-08T01:02:14.573Z,1033.47
2018-12-08T01:03:15.149Z,1033.49
2018-12-08T01:04:15.726Z,1033.58
2018-12-08T01:06:00.815Z,1033.49
2018-12-08T01:07:01.441Z,1033.44
2018-12-08T01:08:02.066Z,1033.53
2018-12-08T01:09:47.147Z,1033.41
2018-12-08T01:10:47.722Z,1033.39
2018-12-08T01:11:48.297Z,1033.36
2018-12-08T01:13:33.384Z,1033.41
2018-12-08T01:14:33.963Z,1033.40
2018-12-08T01:15:34.538Z,1033.38
2018-12-08T01:17:19.628Z,1033.38
2018-12-08T01:18:20.203Z,1033.35
2018-12-08T01:19:20.780Z,1033.31
2018-12-08T01:21:05.870Z,1033.34
2018-12-08T01:22:06.499Z,1033.37
2018-12-08T01:23:07.245Z,1033.33
2018-12-08T01:24:52.333Z,1033.24
2018-12-08T01:25:52.910Z,1033.27
2018-12-08T01:26:53.484Z,1033.33
2018-12-08T01:28:38.623Z,1033.35
2018-12-08T01:29:39.200Z,1033.33
2018-12-08T01:30:39.774Z,1033.32
2018-12-08T01:32:24.864Z,1033.31
2018-12-08T01:33:25.440Z,1033.28
2018-12-08T01:34:26.015Z,1033.25
2018-12-08T01:36:11.110Z,1033.23
2018-12-08T01:37:11.686Z,1033.36
2018-12-08T01:38:12.260Z,1033.29
2018-12-08T01:39:57.506Z,1033.25
2018-12-08T01:40:58.079Z,1033.30
2018-12-08T01:41:58.703Z,1033.31
2018-12-08T01:43:43.791Z,1033.32
2018-12-08T01:44:44.368Z,1033.40
2018-12-08T01:45:44.943Z,1033.43
2018-12-08T01:47:30.035Z,1033.41
2018-12-08T01:48:30.610Z,1033.46
2018-12-08T01:49:31.185Z,1033.40
2018-12-08T01:51:16.276Z,1033.43
2018-12-08T01:52:16.850Z,1033.43
2018-12-08T01:53:17.427Z,1033.49
2018-12-08T01:55:02.517Z,1033.44
2018-12-08T01:56:03.092Z,1033.45
2018-12-08T01:57:03.668Z,1033.43
2018-12-08T01:58:48.807Z,1033.44
2018-12-08T01:59:49.384Z,1033.48
2018-12-08T02:00:50.010Z,1033.48
2018-12-08T02:02:35.154Z,1033.53
2018-12-08T02:03:35.769Z,1033.41
2018-12-08T02:04:36.344Z,1033.47
2018-12-08T02:06:21.435Z,1033.52
2018-12-08T02:07:22.056Z,1033.41
2018-12-08T02:08:22.630Z,1033.47
2018-12-08T02:10:07.813Z,1033.44
2018-12-08T02:11:08.340Z,1033.42
2018-12-08T02:12:08.920Z,1033.42
2018-12-08T02:13:54.003Z,1033.50
2018-12-08T02:14:54.580Z,1033.38
2018-12-08T02:15:55.205Z,1033.43
2018-12-08T02:17:40.394Z,1033.43
2018-12-08T02:18:40.978Z,1033.43
2018-12-08T02:19:41.544Z,1033.47
2018-12-08T02:21:26.634Z,1033.40
2018-12-08T02:22:27.211Z,1033.34
2018-12-08T02:23:27.787Z,1033.38
2018-12-08T02:25:12.878Z,1033.27
2018-12-08T02:26:13.453Z,1033.40
2018-12-08T02:27:14.029Z,1033.39
2018-12-08T02:28:59.118Z,1033.48
2018-12-08T02:29:59.695Z,1033.41
2018-12-08T02:31:00.274Z,1033.43
2018-12-08T02:32:45.411Z,1033.50
2018-12-08T02:33:46.030Z,1033.45
2018-12-08T02:34:46.654Z,1033.44
2018-12-08T02:36:31.741Z,1033.44
2018-12-08T02:37:32.316Z,1033.43
2018-12-08T02:38:32.892Z,1033.38
2018-12-08T02:40:18.037Z,1033.40
2018-12-08T02:41:18.608Z,1033.45
2018-12-08T02:42:19.185Z,1033.36
2018-12-08T02:44:04.275Z,1033.40
2018-12-08T02:45:04.850Z,1033.33
2018-12-08T02:46:05.425Z,1033.34
2018-12-08T02:47:50.515Z,1033.40
2018-12-08T02:48:51.091Z,1033.36
2018-12-08T02:49:51.667Z,1033.31
2018-12-08T02:51:36.869Z,1033.33
2018-12-08T02:52:37.494Z,1033.35
2018-12-08T02:53:38.070Z,1033.34
2018-12-08T02:55:23.307Z,1033.37
2018-12-08T02:56:23.884Z,1033.33
2018-12-08T02:57:24.457Z,1033.38
2018-12-08T02:59:09.548Z,1033.44
2018-12-08T03:00:10.127Z,1033.42
2018-12-08T03:01:10.700Z,1033.42
2018-12-08T03:02:55.789Z,1033.40
2018-12-08T03:03:56.457Z,1033.53
2018-12-08T03:04:56.981Z,1033.57
2018-12-08T03:06:42.069Z,1033.46
2018-12-08T03:07:42.695Z,1033.44
2018-12-08T03:08:43.269Z,1033.45
2018-12-08T03:10:28.358Z,1033.51
2018-12-08T03:11:28.984Z,1033.50
2018-12-08T03:12:29.558Z,1033.54
2018-12-08T03:14:14.646Z,1033.50
2018-12-08T03:15:15.223Z,1033.55
2018-12-08T03:16:15.852Z,1033.56
2018-12-08T03:18:00.937Z,1033.54
2018-12-08T03:19:01.513Z,1033.55
2018-12-08T03:20:02.092Z,1033.53
2018-12-08T03:21:47.222Z,1033.45
2018-12-08T03:22:47.800Z,1033.53
2018-12-08T03:23:48.423Z,1033.52
2018-12-08T03:25:33.512Z,1033.46
2018-12-08T03:26:34.138Z,1033.41
2018-12-08T03:27:34.718Z,1033.43
2018-12-08T03:29:19.852Z,1033.34
2018-12-08T03:30:20.429Z,1033.39
2018-12-08T03:31:21.052Z,1033.41
2018-12-08T03:33:06.196Z,1033.38
2018-12-08T03:34:06.802Z,1033.33
2018-12-08T03:35:07.379Z,1033.32
2018-12-08T03:36:52.466Z,1033.36
2018-12-08T03:37:53.043Z,1033.41
2018-12-08T03:38:53.618Z,1033.43
2018-12-08T03:40:38.707Z,1033.41
2018-12-08T03:41:39.283Z,1033.40
2018-12-08T03:42:39.859Z,1033.37
2018-12-08T03:44:24.996Z,1033.42
2018-12-08T03:45:25.573Z,1033.42
2018-12-08T03:46:26.148Z,1033.41
2018-12-08T03:48:11.237Z,1033.37
2018-12-08T03:49:11.813Z,1033.33
2018-12-08T03:50:12.389Z,1033.38
2018-12-08T03:51:57.678Z,1033.28
2018-12-08T03:52:58.255Z,1033.35
2018-12-08T03:53:58.830Z,1033.30
2018-12-08T03:55:45.036Z,1033.35
2018-12-08T03:56:44.585Z,1033.39
2018-12-08T03:57:45.167Z,1033.28
2018-12-08T03:59:30.298Z,1033.26
2018-12-08T04:00:30.874Z,1033.24
2018-12-08T04:01:31.449Z,1033.29
2018-12-08T04:03:16.541Z,1033.34
2018-12-08T04:04:17.115Z,1033.27
2018-12-08T04:05:17.690Z,1033.33
2018-12-08T04:07:02.779Z,1033.26
2018-12-08T04:08:03.354Z,1033.30
2018-12-08T04:09:03.926Z,1033.25
2018-12-08T04:10:49.076Z,1033.20
2018-12-08T04:11:49.619Z,1033.24
2018-12-08T04:12:50.199Z,1033.25
2018-12-08T04:14:35.280Z,1033.19
2018-12-08T04:15:35.856Z,1033.29
2018-12-08T04:16:36.443Z,1033.25
2018-12-08T04:18:21.529Z,1033.19
2018-12-08T04:19:22.140Z,1033.30
2018-12-08T04:20:22.765Z,1033.25
2018-12-08T04:22:07.902Z,1033.31
2018-12-08T04:23:08.479Z,1033.24
2018-12-08T04:24:09.100Z,1033.22
2018-12-08T04:25:54.187Z,1033.22
2018-12-08T04:26:54.763Z,1033.23
2018-12-08T04:27:55.333Z,1033.23
2018-12-08T04:29:40.420Z,1033.21
2018-12-08T04:30:40.997Z,1033.22
2018-12-08T04:31:41.573Z,1033.21
2018-12-08T04:33:26.661Z,1033.21
2018-12-08T04:34:27.235Z,1033.22
2018-12-08T04:35:27.809Z,1033.15
2018-12-08T04:37:12.900Z,1033.17
2018-12-08T04:38:13.526Z,1033.19
2018-12-08T04:39:14.101Z,1033.23
2018-12-08T04:40:59.190Z,1033.23
2018-12-08T04:41:59.818Z,1033.15
2018-12-08T04:43:00.388Z,1033.21
2018-12-08T04:44:45.569Z,1033.17
2018-12-08T04:45:46.096Z,1033.25
2018-12-08T04:46:46.721Z,1033.23
2018-12-08T04:48:31.809Z,1033.23
2018-12-08T04:49:32.384Z,1033.21
2018-12-08T04:50:32.958Z,1033.19
2018-12-08T04:52:18.048Z,1033.18
2018-12-08T04:53:18.626Z,1033.24
2018-12-08T04:54:19.198Z,1033.22
2018-12-08T04:56:04.337Z,1033.24
2018-12-08T04:57:04.913Z,1033.23
2018-12-08T04:58:05.488Z,1033.29
2018-12-08T04:59:50.576Z,1033.32
2018-12-08T05:00:51.150Z,1033.29
2018-12-08T05:01:51.727Z,1033.35
2018-12-08T05:03:36.871Z,1033.30
2018-12-08T05:04:37.444Z,1033.29
2018-12-08T05:05:38.015Z,1033.32
2018-12-08T05:07:23.153Z,1033.24
2018-12-08T05:08:23.782Z,1033.29
2018-12-08T05:09:24.354Z,1033.32
2018-12-08T05:11:09.440Z,1033.30
2018-12-08T05:12:10.016Z,1033.27
2018-12-08T05:13:10.594Z,1033.31
2018-12-08T05:14:55.731Z,1033.26
2018-12-08T05:15:56.307Z,1033.28
2018-12-08T05:16:56.883Z,1033.31
2018-12-08T05:18:41.972Z,1033.29
2018-12-08T05:19:42.547Z,1033.29
2018-12-08T05:20:43.122Z,1033.30
2018-12-08T05:22:28.311Z,1033.28
2018-12-08T05:23:28.887Z,1033.29
2018-12-08T05:24:29.461Z,1033.23
2018-12-08T05:26:14.622Z,1033.23
2018-12-08T05:27:15.147Z,1033.24
2018-12-08T05:28:15.817Z,1033.29
2018-12-08T05:30:00.953Z,1033.18
2018-12-08T05:31:01.531Z,1033.21
2018-12-08T05:32:02.104Z,1033.24
2018-12-08T05:33:47.193Z,1033.18
2018-12-08T05:34:47.769Z,1033.14
2018-12-08T05:35:48.344Z,1033.16
2018-12-08T05:37:33.434Z,1033.18
2018-12-08T05:38:34.013Z,1033.09
2018-12-08T05:39:34.583Z,1033.14
2018-12-08T05:41:19.724Z,1033.08
2018-12-08T05:42:20.350Z,1033.13
2018-12-08T05:43:20.924Z,1033.14
2018-12-08T05:45:06.212Z,1033.09
2018-12-08T05:46:06.787Z,1033.13
2018-12-08T05:47:07.415Z,1033.08
2018-12-08T05:48:52.503Z,1033.10
2018-12-08T05:49:53.131Z,1033.11
2018-12-08T05:50:53.699Z,1033.15
2018-12-08T05:52:38.788Z,1033.09
2018-12-08T05:53:39.364Z,1033.14
2018-12-08T05:54:39.981Z,1033.10
2018-12-08T05:56:25.070Z,1033.14
2018-12-08T05:57:25.647Z,1033.04
2018-12-08T05:58:26.315Z,1033.19
2018-12-08T06:00:11.402Z,1033.12
2018-12-08T06:01:12.030Z,1033.17
2018-12-08T06:02:12.601Z,1033.19
2018-12-08T06:03:57.690Z,1033.22
2018-12-08T06:04:58.266Z,1033.22
2018-12-08T06:05:58.891Z,1033.22
2018-12-08T06:07:43.979Z,1033.28
2018-12-08T06:08:44.555Z,1033.27
2018-12-08T06:09:45.131Z,1033.27
2018-12-08T06:11:30.220Z,1033.20
2018-12-08T06:12:30.794Z,1033.26
2018-12-08T06:13:31.369Z,1033.35
2018-12-08T06:15:16.459Z,1033.37
2018-12-08T06:16:17.035Z,1033.42
2018-12-08T06:17:17.660Z,1033.41
2018-12-08T06:19:02.748Z,1033.40
2018-12-08T06:20:03.324Z,1033.34
2018-12-08T06:21:03.899Z,1033.40
2018-12-08T06:22:49.038Z,1033.37
2018-12-08T06:23:49.613Z,1033.34
2018-12-08T06:24:50.238Z,1033.38
2018-12-08T06:26:35.325Z,1033.41
2018-12-08T06:27:35.902Z,1033.39
2018-12-08T06:28:36.476Z,1033.44
2018-12-08T06:30:21.765Z,1033.34
2018-12-08T06:31:22.388Z,1033.48
2018-12-08T06:32:22.961Z,1033.45
2018-12-08T06:34:08.048Z,1033.42
2018-12-08T06:35:08.725Z,1033.41
2018-12-08T06:36:09.297Z,1033.52
2018-12-08T06:37:54.429Z,1033.50
2018-12-08T06:38:55.004Z,1033.56
2018-12-08T06:39:55.581Z,1033.52
2018-12-08T06:40:57.577Z,1033.53
2018-12-08T06:41:58.154Z,1033.57
2018-12-08T06:42:58.723Z,1033.54
2018-12-08T06:43:59.302Z,1033.63
2018-12-08T06:44:59.876Z,1033.64
2018-12-08T06:46:00.450Z,1033.62
2018-12-08T06:47:01.173Z,1033.66
2018-12-08T06:48:01.797Z,1033.58
2018-12-08T06:49:02.369Z,1033.62
2018-12-08T06:50:02.945Z,1033.65
2018-12-08T06:51:03.518Z,1033.63
2018-12-08T06:52:04.093Z,1033.62
2018-12-08T06:53:04.667Z,1033.66
2018-12-08T06:54:05.248Z,1033.66
2018-12-08T06:55:05.870Z,1033.70
2018-12-08T06:56:06.444Z,1033.74
2018-12-08T06:57:07.020Z,1033.65
2018-12-08T06:58:07.638Z,1033.65
2018-12-08T06:59:52.724Z,1033.63
2018-12-08T07:00:53.300Z,1033.67
2018-12-08T07:01:53.875Z,1033.70
2018-12-08T07:02:54.451Z,1033.70
2018-12-08T07:03:55.025Z,1033.73
2018-12-08T07:04:55.598Z,1033.79
2018-12-08T07:05:56.223Z,1033.71
2018-12-08T07:06:56.839Z,1033.74
2018-12-08T07:07:57.411Z,1033.78
2018-12-08T07:08:58.033Z,1033.74
2018-12-08T07:09:58.609Z,1033.75
2018-12-08T07:10:59.235Z,1033.76
2018-12-08T07:11:59.809Z,1033.85
2018-12-08T07:13:00.426Z,1033.85
2018-12-08T07:14:00.999Z,1033.79
2018-12-08T07:15:01.573Z,1033.78
2018-12-08T07:16:02.150Z,1033.76
2018-12-08T07:17:02.720Z,1033.74
2018-12-08T07:18:03.343Z,1033.75
2018-12-08T07:19:03.926Z,1033.76
2018-12-08T07:20:04.537Z,1033.84
2018-12-08T07:21:49.676Z,1033.84
2018-12-08T07:22:50.252Z,1033.73
2018-12-08T07:23:50.827Z,1033.76
2018-12-08T07:24:51.453Z,1033.79
2018-12-08T07:25:52.025Z,1033.84
2018-12-08T07:26:52.598Z,1033.81
2018-12-08T07:27:53.172Z,1033.81
2018-12-08T07:28:53.746Z,1033.85
2018-12-08T07:29:54.318Z,1033.83
2018-12-08T07:30:54.892Z,1033.83
2018-12-08T07:31:55.464Z,1033.70
2018-12-08T07:32:56.037Z,1033.80
2018-12-08T07:33:56.611Z,1033.78
2018-12-08T07:34:57.184Z,1033.81
2018-12-08T07:35:57.757Z,1033.82
2018-12-08T07:36:58.332Z,1033.84
2018-12-08T07:37:59.005Z,1033.85
2018-12-08T07:38:59.572Z,1033.82
2018-12-08T07:40:00.155Z,1033.84
2018-12-08T07:41:00.724Z,1033.82
2018-12-08T07:42:01.299Z,1033.81
2018-12-08T07:43:46.434Z,1033.84
2018-12-08T07:44:47.010Z,1033.86
2018-12-08T07:45:47.618Z,1033.79
2018-12-08T07:46:48.211Z,1033.85
2018-12-08T07:47:48.784Z,1033.83
2018-12-08T07:48:49.357Z,1033.78
2018-12-08T07:49:49.933Z,1033.79
2018-12-08T07:50:50.508Z,1033.85
2018-12-08T07:51:51.082Z,1033.83
2018-12-08T07:52:51.702Z,1033.86
2018-12-08T07:53:52.275Z,1033.88
2018-12-08T07:54:52.847Z,1033.87
2018-12-08T07:55:53.422Z,1033.91
2018-12-08T07:56:53.995Z,1033.86
2018-12-08T07:57:54.568Z,1033.86
2018-12-08T07:58:55.143Z,1033.94
2018-12-08T07:59:55.768Z,1033.94
2018-12-08T08:00:56.343Z,1033.92
2018-12-08T08:01:56.970Z,1033.90
2018-12-08T08:02:57.549Z,1033.99
2018-12-08T08:03:58.118Z,1033.94
2018-12-08T08:05:43.215Z,1033.98
2018-12-08T08:06:43.779Z,1034.03
2018-12-08T08:07:44.354Z,1033.98
2018-12-08T08:08:44.979Z,1034.00
2018-12-08T08:09:45.552Z,1034.00
2018-12-08T08:10:46.126Z,1034.00
2018-12-08T08:11:46.699Z,1034.04
2018-12-08T08:12:47.272Z,1034.07
2018-12-08T08:13:47.845Z,1034.09
2018-12-08T08:14:48.418Z,1034.06
2018-12-08T08:15:48.996Z,1034.01
2018-12-08T08:16:49.564Z,1033.99
2018-12-08T08:17:50.138Z,1034.04
2018-12-08T08:18:50.719Z,1034.08
2018-12-08T08:19:51.378Z,1034.01
2018-12-08T08:20:51.952Z,1034.04
2018-12-08T08:21:52.579Z,1034.04
2018-12-08T08:22:53.150Z,1034.05
2018-12-08T08:23:53.836Z,1034.08
2018-12-08T08:24:54.363Z,1034.12
2018-12-08T08:25:54.933Z,1034.14
2018-12-08T08:27:40.074Z,1034.15
2018-12-08T08:28:40.606Z,1034.13
2018-12-08T08:29:41.179Z,1034.14
2018-12-08T08:30:41.752Z,1034.09
2018-12-08T08:31:43.900Z,1034.15
2018-12-08T08:32:42.938Z,1034.18
2018-12-08T08:33:43.512Z,1034.12
2018-12-08T08:34:44.136Z,1034.19
2018-12-08T08:35:44.711Z,1034.14
2018-12-08T08:36:45.291Z,1034.24
2018-12-08T08:37:45.865Z,1034.21
2018-12-08T08:38:46.438Z,1034.20
2018-12-08T08:39:47.014Z,1034.15
2018-12-08T08:40:47.636Z,1034.22
2018-12-08T08:41:48.265Z,1034.23
2018-12-08T08:42:48.887Z,1034.21
2018-12-08T08:43:49.469Z,1034.21
2018-12-08T08:44:50.031Z,1034.23
2018-12-08T08:45:50.606Z,1034.20
2018-12-08T08:46:51.179Z,1034.25
2018-12-08T08:47:51.804Z,1034.30
2018-12-08T08:49:36.891Z,1034.28
2018-12-08T08:50:37.467Z,1034.36
2018-12-08T08:51:38.041Z,1034.20
2018-12-08T08:52:38.617Z,1034.27
2018-12-08T08:53:39.189Z,1034.28
2018-12-08T08:54:39.764Z,1034.25
2018-12-08T08:55:40.338Z,1034.27
2018-12-08T08:56:40.913Z,1034.22
2018-12-08T08:57:41.539Z,1034.35
2018-12-08T08:58:42.159Z,1034.25
2018-12-08T08:59:42.736Z,1034.28
2018-12-08T09:00:43.308Z,1034.38
2018-12-08T09:01:43.935Z,1034.28
2018-12-08T09:02:44.506Z,1034.39
2018-12-08T09:03:45.079Z,1034.35
2018-12-08T09:04:45.652Z,1034.32
2018-12-08T09:05:46.227Z,1034.30
2018-12-08T09:06:46.798Z,1034.37
2018-12-08T09:07:47.373Z,1034.31
2018-12-08T09:08:47.945Z,1034.39
2018-12-08T09:09:48.518Z,1034.37
2018-12-08T09:11:33.604Z,1034.36
2018-12-08T09:12:34.180Z,1034.39
2018-12-08T09:13:34.754Z,1034.42
2018-12-08T09:14:35.330Z,1034.38
2018-12-08T09:15:35.902Z,1034.39
2018-12-08T09:16:36.477Z,1034.46
2018-12-08T09:17:37.103Z,1034.41
2018-12-08T09:18:37.717Z,1034.38
2018-12-08T09:19:38.339Z,1034.41
2018-12-08T09:20:38.962Z,1034.49
2018-12-08T09:21:39.537Z,1034.49
2018-12-08T09:22:40.109Z,1034.47
2018-12-08T09:23:40.684Z,1034.48
2018-12-08T09:24:41.258Z,1034.43
2018-12-08T09:25:41.831Z,1034.47
2018-12-08T09:26:42.406Z,1034.42
2018-12-08T09:27:42.980Z,1034.46
2018-12-08T09:28:43.551Z,1034.43
2018-12-08T09:29:44.127Z,1034.52
2018-12-08T09:30:44.700Z,1034.46
2018-12-08T09:31:45.374Z,1034.52
2018-12-08T09:33:30.414Z,1034.44
2018-12-08T09:34:30.988Z,1034.37
2018-12-08T09:35:31.611Z,1034.47
2018-12-08T09:36:32.186Z,1034.48
2018-12-08T09:37:32.808Z,1034.50
2018-12-08T09:38:33.483Z,1034.49
2018-12-08T09:39:34.056Z,1034.50
2018-12-08T09:40:34.632Z,1034.47
2018-12-08T09:41:35.203Z,1034.48
2018-12-08T09:42:35.778Z,1034.48
2018-12-08T09:43:36.352Z,1034.49
2018-12-08T09:44:36.923Z,1034.52
2018-12-08T09:45:41.822Z,1034.50
2018-12-08T09:46:39.070Z,1034.53
2018-12-08T09:47:39.638Z,1034.63
2018-12-08T09:48:40.213Z,1034.64
2018-12-08T09:49:40.787Z,1034.62
2018-12-08T09:50:41.361Z,1034.67
2018-12-08T09:51:41.985Z,1034.63
2018-12-08T09:52:42.611Z,1034.72
2018-12-08T09:53:43.190Z,1034.70
2018-12-08T09:55:28.322Z,1034.74
2018-12-08T09:56:28.897Z,1034.74
2018-12-08T09:57:29.555Z,1034.71
2018-12-08T09:58:30.139Z,1034.78
2018-12-08T09:59:30.764Z,1034.77
2018-12-08T10:00:31.336Z,1034.74
2018-12-08T10:01:31.912Z,1034.80
2018-12-08T10:02:32.485Z,1034.86
2018-12-08T10:03:33.065Z,1034.87
2018-12-08T10:04:33.735Z,1034.93
2018-12-08T10:05:34.311Z,1034.88
2018-12-08T10:06:34.883Z,1034.93
2018-12-08T10:07:35.458Z,1034.93
2018-12-08T10:08:36.032Z,1034.95
2018-12-08T10:09:36.604Z,1034.90
2018-12-08T10:10:37.178Z,1035.01
2018-12-08T10:11:37.907Z,1034.95
2018-12-08T10:12:38.484Z,1034.95
2018-12-08T10:13:39.064Z,1034.93
2018-12-08T10:14:39.647Z,1034.94
2018-12-08T10:15:40.316Z,1035.01
2018-12-08T10:17:25.408Z,1034.94
2018-12-08T10:18:25.987Z,1034.96
2018-12-08T10:19:26.566Z,1034.94
2018-12-08T10:20:27.142Z,1034.99
2018-12-08T10:21:27.771Z,1035.03
2018-12-08T10:22:28.349Z,1035.00
2018-12-08T10:23:28.977Z,1034.94
2018-12-08T10:24:29.557Z,1034.95
2018-12-08T10:25:30.136Z,1034.92
2018-12-08T10:26:30.715Z,1034.96
2018-12-08T10:27:31.296Z,1034.98
2018-12-08T10:28:31.875Z,1035.02
2018-12-08T10:29:32.504Z,1035.06
2018-12-08T10:30:33.081Z,1035.05
2018-12-08T10:31:33.657Z,1035.09
2018-12-08T10:32:34.287Z,1035.10
2018-12-08T10:33:34.917Z,1035.09
2018-12-08T10:34:35.495Z,1035.10
2018-12-08T10:35:36.074Z,1035.07
2018-12-08T10:36:36.656Z,1035.02
2018-12-08T10:37:37.236Z,1035.01
2018-12-08T10:39:22.328Z,1035.05
2018-12-08T10:40:22.908Z,1035.08
2018-12-08T10:41:23.487Z,1035.09
2018-12-08T10:42:24.116Z,1035.09
2018-12-08T10:43:24.744Z,1035.15
2018-12-08T10:44:25.328Z,1035.14
2018-12-08T10:45:25.904Z,1035.13
2018-12-08T10:46:26.483Z,1035.10
2018-12-08T10:47:27.061Z,1035.11
2018-12-08T10:48:27.641Z,1035.17
2018-12-08T10:49:28.223Z,1035.16
2018-12-08T10:50:28.802Z,1035.18
2018-12-08T10:51:29.435Z,1035.22
2018-12-08T10:52:30.106Z,1035.19
2018-12-08T10:53:30.686Z,1035.20
2018-12-08T10:54:31.267Z,1035.25
2018-12-08T10:55:31.846Z,1035.20
2018-12-08T10:56:32.478Z,1035.18
2018-12-08T10:57:33.058Z,1035.13
2018-12-08T10:58:33.639Z,1035.16
2018-12-08T10:59:34.264Z,1035.15
2018-12-08T11:01:19.555Z,1035.17
2018-12-08T11:02:20.137Z,1035.14
2018-12-08T11:03:20.720Z,1035.18
2018-12-08T11:04:21.298Z,1035.18
2018-12-08T11:05:21.878Z,1035.22
2018-12-08T11:06:22.458Z,1035.10
2018-12-08T11:07:23.038Z,1035.12
2018-12-08T11:08:23.620Z,1035.08
2018-12-08T11:09:24.200Z,1035.17
2018-12-08T11:10:24.780Z,1035.13
2018-12-08T11:11:25.362Z,1035.15
2018-12-08T11:12:25.939Z,1035.15
2018-12-08T11:13:26.571Z,1035.12
2018-12-08T11:14:27.151Z,1035.15
2018-12-08T11:15:27.729Z,1035.08
2018-12-08T11:16:28.310Z,1035.07
2018-12-08T11:17:28.939Z,1035.09
2018-12-08T11:18:29.516Z,1035.05
2018-12-08T11:19:30.097Z,1034.97
2018-12-08T11:20:30.676Z,1035.04
2018-12-08T11:21:31.257Z,1035.08
2018-12-08T11:23:16.401Z,1035.05
2018-12-08T11:24:16.982Z,1035.07
2018-12-08T11:25:17.561Z,1035.07
2018-12-08T11:26:18.141Z,1035.03
2018-12-08T11:27:18.721Z,1035.09
2018-12-08T11:28:19.299Z,1035.04
2018-12-08T11:29:19.880Z,1035.03
2018-12-08T11:30:20.459Z,1035.03
2018-12-08T11:31:21.038Z,1035.10
2018-12-08T11:32:21.668Z,1035.06
2018-12-08T11:33:22.299Z,1035.07
2018-12-08T11:34:22.876Z,1035.00
2018-12-08T11:35:23.457Z,1035.05
2018-12-08T11:36:24.036Z,1035.15
2018-12-08T11:37:24.615Z,1035.05
2018-12-08T11:38:25.350Z,1035.01
2018-12-08T11:39:25.977Z,1035.02
2018-12-08T11:40:26.556Z,1034.99
2018-12-08T11:41:27.136Z,1035.00
2018-12-08T11:42:27.716Z,1034.98
2018-12-08T11:43:28.295Z,1034.97
2018-12-08T11:45:13.400Z,1035.03
2018-12-08T11:46:13.977Z,1035.02
2018-12-08T11:47:14.556Z,1034.97
2018-12-08T11:48:15.136Z,1034.91
2018-12-08T11:49:15.717Z,1035.00
2018-12-08T11:50:16.298Z,1034.96
2018-12-08T11:51:16.925Z,1034.92
2018-12-08T11:52:17.513Z,1034.96
2018-12-08T11:53:18.086Z,1034.96
2018-12-08T11:54:18.663Z,1034.91
2018-12-08T11:55:19.295Z,1034.91
2018-12-08T11:56:19.873Z,1034.92
2018-12-08T11:57:20.454Z,1034.95
2018-12-08T11:58:21.034Z,1034.86
2018-12-08T11:59:21.661Z,1034.85
2018-12-08T12:00:22.242Z,1034.89
2018-12-08T12:01:22.873Z,1034.87
2018-12-08T12:02:23.451Z,1034.87
2018-12-08T12:03:24.032Z,1034.89
2018-12-08T12:04:24.612Z,1034.82
2018-12-08T12:05:25.191Z,1034.82
2018-12-08T12:07:10.334Z,1034.77
2018-12-08T12:08:10.916Z,1034.79
2018-12-08T12:09:11.494Z,1034.73
2018-12-08T12:10:12.073Z,1034.70
2018-12-08T12:11:12.654Z,1034.70
2018-12-08T12:12:13.232Z,1034.71
2018-12-08T12:13:13.812Z,1034.72
2018-12-08T12:14:14.392Z,1034.65
2018-12-08T12:15:14.973Z,1034.62
2018-12-08T12:16:15.553Z,1034.66
2018-12-08T12:17:16.132Z,1034.60
2018-12-08T12:18:16.759Z,1034.58
2018-12-08T12:19:17.340Z,1034.63
2018-12-08T12:20:17.970Z,1034.73
2018-12-08T12:21:18.549Z,1034.66
2018-12-08T12:22:19.182Z,1034.67
2018-12-08T12:23:19.762Z,1034.57
2018-12-08T12:24:20.339Z,1034.58
2018-12-08T12:25:20.919Z,1034.60
2018-12-08T12:26:21.500Z,1034.63
2018-12-08T12:27:22.083Z,1034.60
2018-12-08T12:29:07.176Z,1034.64
2018-12-08T12:30:07.758Z,1034.64
2018-12-08T12:31:08.437Z,1034.56
2018-12-08T12:32:09.066Z,1034.56
2018-12-08T12:33:09.644Z,1034.43
2018-12-08T12:34:10.226Z,1034.49
2018-12-08T12:35:10.804Z,1034.55
2018-12-08T12:36:11.383Z,1034.53
2018-12-08T12:37:11.963Z,1034.48
2018-12-08T12:38:12.642Z,1034.51
2018-12-08T12:39:13.222Z,1034.52
2018-12-08T12:40:13.803Z,1034.44
2018-12-08T12:41:14.380Z,1034.50
2018-12-08T12:42:14.961Z,1034.44
2018-12-08T12:43:15.539Z,1034.48
2018-12-08T12:44:16.118Z,1034.38
2018-12-08T12:45:16.698Z,1034.46
2018-12-08T12:46:17.275Z,1034.46
2018-12-08T12:47:17.905Z,1034.42
2018-12-08T12:48:18.536Z,1034.38
2018-12-08T12:49:19.116Z,1034.42
2018-12-08T12:51:04.209Z,1034.49
2018-12-08T12:52:04.792Z,1034.46
2018-12-08T12:53:05.410Z,1034.37
2018-12-08T12:54:05.989Z,1034.42
2018-12-08T12:55:06.569Z,1034.40
2018-12-08T12:56:07.146Z,1034.42
2018-12-08T12:57:07.728Z,1034.42
2018-12-08T12:58:08.356Z,1034.39
2018-12-08T12:59:08.935Z,1034.43
2018-12-08T13:00:09.514Z,1034.43
2018-12-08T13:01:10.093Z,1034.40
2018-12-08T13:02:10.693Z,1034.42
2018-12-08T13:03:11.252Z,1034.35
2018-12-08T13:04:11.832Z,1034.34
2018-12-08T13:05:12.505Z,1034.34
2018-12-08T13:06:13.101Z,1034.31
2018-12-08T13:07:13.710Z,1034.27
2018-12-08T13:08:14.338Z,1034.26
2018-12-08T13:09:14.919Z,1034.25
2018-12-08T13:10:15.500Z,1034.20
2018-12-08T13:11:16.080Z,1034.21
2018-12-08T13:13:01.175Z,1034.23
2018-12-08T13:14:01.755Z,1034.21
2018-12-08T13:15:02.377Z,1034.19
2018-12-08T13:16:02.956Z,1034.17
2018-12-08T13:17:03.536Z,1034.12
2018-12-08T13:18:04.166Z,1034.14
2018-12-08T13:19:04.794Z,1034.08
2018-12-08T13:20:05.375Z,1034.06
2018-12-08T13:21:05.953Z,1034.08
2018-12-08T13:22:06.531Z,1034.14
2018-12-08T13:23:07.112Z,1034.07
2018-12-08T13:24:07.690Z,1034.11
2018-12-08T13:25:08.272Z,1034.01
2018-12-08T13:26:08.899Z,1034.02
2018-12-08T13:27:09.478Z,1034.01
2018-12-08T13:28:10.100Z,1034.04
2018-12-08T13:29:10.679Z,1034.02
2018-12-08T13:30:11.258Z,1033.88
2018-12-08T13:31:11.840Z,1033.97
2018-12-08T13:32:12.418Z,1033.98
2018-12-08T13:33:13.048Z,1033.98
2018-12-08T13:34:58.143Z,1033.94
2018-12-08T13:35:58.725Z,1033.96
2018-12-08T13:36:59.303Z,1033.93
2018-12-08T13:37:59.882Z,1033.85
2018-12-08T13:39:00.463Z,1033.89
2018-12-08T13:40:01.094Z,1033.87
2018-12-08T13:41:01.713Z,1033.89
2018-12-08T13:42:02.296Z,1033.84
2018-12-08T13:43:02.872Z,1033.87
2018-12-08T13:44:03.453Z,1033.89
2018-12-08T13:45:04.082Z,1033.80